createdAt,value
2022-11-12T00:02:31.656Z,9.60
2022-11-12T00:07:53.894Z,9.60
2022-11-12T00:13:17.847Z,9.60
2022-11-12T00:18:40.024Z,9.50
2022-11-12T00:24:02.247Z,9.50
2022-11-12T00:29:25.455Z,9.50
2022-11-12T00:34:47.718Z,9.50
2022-11-12T00:40:10.539Z,9.40
2022-11-12T00:45:33.923Z,9.40
2022-11-12T00:51:01.767Z,9.40
2022-11-12T00:56:23.695Z,9.30
2022-11-12T01:01:47.162Z,9.30
2022-11-12T01:07:09.518Z,9.30
2022-11-12T01:12:32.911Z,9.30
2022-11-12T01:17:56.366Z,9.30
2022-11-12T01:23:18.288Z,9.30
2022-11-12T01:28:40.953Z,9.30
2022-11-12T01:34:06.891Z,9.30
2022-11-12T01:39:28.958Z,9.20
2022-11-12T01:44:53.583Z,9.20
2022-11-12T01:50:24.313Z,9.20
2022-11-12T01:55:46.504Z,9.10
2022-11-12T02:01:08.721Z,9.10
2022-11-12T02:06:33.426Z,9.10
2022-11-12T02:11:55.615Z,9.10
2022-11-12T02:17:18.300Z,9.00
2022-11-12T02:22:41.696Z,9.00
2022-11-12T02:28:06.435Z,9.00
2022-11-12T02:33:28.772Z,9.00
2022-11-12T02:38:52.281Z,9.00
2022-11-12T02:44:14.421Z,8.90
2022-11-12T02:49:36.464Z,8.90
2022-11-12T02:54:59.770Z,8.90
2022-11-12T03:00:21.924Z,8.90
2022-11-12T03:05:45.462Z,8.90
2022-11-12T03:11:10.994Z,8.80
2022-11-12T03:16:33.116Z,8.80
2022-11-12T03:21:55.280Z,8.80
2022-11-12T03:27:18.646Z,8.80
2022-11-12T03:32:40.698Z,8.80
2022-11-12T03:38:02.825Z,8.70
2022-11-12T03:43:26.205Z,8.70
2022-11-12T03:48:48.137Z,8.70
2022-11-12T03:54:10.414Z,8.70
2022-11-12T03:59:34.140Z,8.60
2022-11-12T04:05:12.883Z,8.60
2022-11-12T04:10:36.246Z,8.60
2022-11-12T04:16:19.501Z,8.60
2022-11-12T04:21:54.684Z,8.60
2022-11-12T04:27:19.396Z,8.50
2022-11-12T04:32:49.441Z,8.50
2022-11-12T04:38:11.718Z,8.50
2022-11-12T04:43:50.896Z,8.50
2022-11-12T04:49:14.534Z,8.50
2022-11-12T04:54:36.916Z,8.50
2022-11-12T04:59:59.439Z,8.50
2022-11-12T05:05:23.060Z,8.50
2022-11-12T05:10:46.225Z,8.40
2022-11-12T05:16:08.868Z,8.40
2022-11-12T05:21:49.653Z,8.40
2022-11-12T05:27:13.757Z,8.30
2022-11-12T05:32:35.711Z,8.30
2022-11-12T05:37:59.262Z,8.30
2022-11-12T05:43:21.601Z,8.30
2022-11-12T05:48:43.774Z,8.20
2022-11-12T05:54:07.406Z,8.20
2022-11-12T05:59:29.812Z,8.20
2022-11-12T06:04:51.991Z,8.20
2022-11-12T06:10:20.292Z,8.20
2022-11-12T06:15:42.968Z,8.10
2022-11-12T06:21:26.395Z,8.10
2022-11-12T06:26:50.166Z,8.10
2022-11-12T06:32:12.567Z,8.10
2022-11-12T06:37:34.490Z,8.10
2022-11-12T06:43:00.876Z,8.10
2022-11-12T06:48:23.205Z,8.00
2022-11-12T06:53:45.578Z,8.00
2022-11-12T06:59:09.060Z,8.00
2022-11-12T07:04:31.259Z,8.00
2022-11-12T07:13:54.058Z,8.00
2022-11-12T07:19:16.496Z,8.00
2022-11-12T07:24:38.774Z,8.00
2022-11-12T07:30:02.218Z,8.00
2022-11-12T07:35:24.549Z,8.00
2022-11-12T07:40:46.394Z,8.00
2022-11-12T07:46:12.998Z,8.00
2022-11-12T07:51:35.078Z,8.00
2022-11-12T07:56:57.081Z,8.00
2022-11-12T08:02:20.449Z,8.00
2022-11-12T08:07:42.535Z,8.10
2022-11-12T08:13:05.211Z,8.10
2022-11-12T08:18:29.865Z,8.20
2022-11-12T08:23:52.381Z,8.20
2022-11-12T08:29:14.735Z,8.20
2022-11-12T08:34:41.331Z,8.30
2022-11-12T08:40:03.954Z,8.40
2022-11-12T08:45:26.691Z,8.40
2022-11-12T08:50:49.976Z,8.50
2022-11-12T08:56:12.370Z,8.50
2022-11-12T09:01:34.470Z,8.90
2022-11-12T09:06:58.228Z,9.20
2022-11-12T09:12:20.492Z,9.20
2022-11-12T09:17:42.965Z,9.30
2022-11-12T09:23:08.418Z,9.30
2022-11-12T09:28:30.449Z,9.30
2022-11-12T09:33:52.483Z,9.40
2022-11-12T09:39:16.086Z,9.40
2022-11-12T09:44:41.636Z,9.50
2022-11-12T09:50:19.500Z,9.60
2022-11-12T09:55:45.295Z,9.70
2022-11-12T10:01:15.257Z,9.80
2022-11-12T10:06:46.878Z,9.90
2022-11-12T10:12:34.150Z,10.10
2022-11-12T10:18:05.282Z,10.30
2022-11-12T10:23:30.653Z,10.50
2022-11-12T10:29:00.256Z,10.60
2022-11-12T10:34:23.818Z,10.80
2022-11-12T10:39:47.737Z,10.80
2022-11-12T10:45:22.490Z,10.90
2022-11-12T10:50:44.959Z,11.00
2022-11-12T10:56:24.592Z,11.10
2022-11-12T11:01:56.181Z,11.10
2022-11-12T11:07:23.109Z,11.20
2022-11-12T11:12:45.577Z,11.20
2022-11-12T11:18:12.630Z,11.30
2022-11-12T11:23:41.748Z,11.30
2022-11-12T11:29:22.019Z,11.40
2022-11-12T11:34:57.844Z,11.50
2022-11-12T11:40:28.035Z,11.60
2022-11-12T11:46:01.828Z,11.70
2022-11-12T11:51:48.937Z,11.80
2022-11-12T11:57:16.709Z,12.10
2022-11-12T12:03:07.301Z,12.30
2022-11-12T12:08:45.655Z,12.50
2022-11-12T12:14:23.985Z,12.90
2022-11-12T12:19:57.055Z,13.40
2022-11-12T12:25:26.531Z,13.90
2022-11-12T12:30:53.720Z,14.30
2022-11-12T12:36:18.885Z,14.40
2022-11-12T12:41:47.801Z,14.30
2022-11-12T12:47:13.980Z,14.40
2022-11-12T12:53:00.325Z,14.40
2022-11-12T12:58:29.013Z,14.30
2022-11-12T13:03:58.336Z,14.30
2022-11-12T13:09:26.457Z,14.20
2022-11-12T13:15:08.482Z,14.10
2022-11-12T13:20:36.474Z,14.10
2022-11-12T13:26:31.108Z,14.00
2022-11-12T13:32:26.452Z,14.00
2022-11-12T13:37:52.711Z,14.00
2022-11-12T13:43:31.293Z,14.00
2022-11-12T13:48:59.987Z,13.90
2022-11-12T13:54:40.303Z,13.90
2022-11-12T14:00:26.244Z,13.80
2022-11-12T14:05:50.479Z,13.80
2022-11-12T14:11:52.140Z,13.80
2022-11-12T14:17:26.414Z,13.80
2022-11-12T14:22:49.251Z,13.80
2022-11-12T14:28:27.665Z,13.80
2022-11-12T14:33:50.356Z,13.80
2022-11-12T14:39:13.552Z,13.80
2022-11-12T14:44:39.119Z,13.80
2022-11-12T14:50:01.679Z,13.80
2022-11-12T14:55:27.608Z,13.70
2022-11-12T15:00:53.892Z,13.70
2022-11-12T15:06:22.576Z,13.60
2022-11-12T15:11:46.298Z,13.60
2022-11-12T15:17:30.309Z,13.60
2022-11-12T15:22:53.929Z,13.50
2022-11-12T15:28:22.199Z,13.40
2022-11-12T15:33:46.004Z,13.30
2022-11-12T15:39:14.653Z,13.30
2022-11-12T15:44:38.408Z,13.20
2022-11-12T15:50:02.024Z,13.10
2022-11-12T15:55:24.360Z,13.00
2022-11-12T16:00:47.302Z,12.90
2022-11-12T16:06:13.262Z,12.80
2022-11-12T16:11:38.525Z,12.80
2022-11-12T16:17:00.700Z,12.60
2022-11-12T16:22:24.684Z,12.60
2022-11-12T16:27:51.414Z,12.50
2022-11-12T16:33:16.928Z,12.40
2022-11-12T16:38:40.413Z,12.30
2022-11-12T16:44:02.776Z,12.30
2022-11-12T16:49:26.123Z,12.20
2022-11-12T16:54:49.535Z,12.20
2022-11-12T17:00:14.923Z,12.10
2022-11-12T17:05:37.105Z,12.10
2022-11-12T17:11:07.557Z,12.00
2022-11-12T17:16:29.891Z,12.00
2022-11-12T17:21:52.070Z,12.00
2022-11-12T17:27:15.511Z,11.90
2022-11-12T17:32:37.586Z,11.90
2022-11-12T17:37:59.558Z,11.90
2022-11-12T17:43:23.043Z,11.90
2022-11-12T17:48:45.416Z,11.90
2022-11-12T17:54:08.505Z,11.80
2022-11-12T17:59:31.897Z,11.80
2022-11-12T18:04:53.949Z,11.70
2022-11-12T18:10:19.562Z,11.70
2022-11-12T18:15:43.737Z,11.60
2022-11-12T18:21:06.438Z,11.60
2022-11-12T18:26:28.681Z,11.60
2022-11-12T18:31:52.367Z,11.50
2022-11-12T18:37:14.829Z,11.50
2022-11-12T18:42:37.197Z,11.50
2022-11-12T18:48:00.836Z,11.50
2022-11-12T18:53:23.002Z,11.40
2022-11-12T18:58:45.404Z,11.40
2022-11-12T19:04:12.038Z,11.40
2022-11-12T19:09:34.355Z,11.40
2022-11-12T19:14:56.487Z,11.30
2022-11-12T19:20:20.080Z,11.30
2022-11-12T19:25:42.189Z,11.30
2022-11-12T19:31:05.064Z,11.30
2022-11-12T19:36:28.811Z,11.20
2022-11-12T19:41:51.142Z,11.20
2022-11-12T19:47:13.187Z,11.10
2022-11-12T19:52:36.558Z,11.10
2022-11-12T19:57:58.472Z,11.10
2022-11-12T20:03:22.427Z,11.10
2022-11-12T20:08:46.835Z,11.10
2022-11-12T20:14:08.866Z,11.10
2022-11-12T20:19:30.855Z,11.00
2022-11-12T20:24:54.274Z,11.00
2022-11-12T20:30:16.516Z,11.00
2022-11-12T20:35:39.145Z,10.90
2022-11-12T20:41:04.661Z,10.90
2022-11-12T20:46:28.411Z,10.90
2022-11-12T20:51:50.556Z,10.90
2022-11-12T20:57:14.084Z,10.90
2022-11-12T21:02:36.502Z,10.90
2022-11-12T21:07:58.611Z,10.80
2022-11-12T21:13:23.573Z,10.80
2022-11-12T21:18:45.985Z,10.80
2022-11-12T21:24:09.076Z,10.80
2022-11-12T21:29:32.732Z,10.80
2022-11-12T21:34:55.729Z,10.70
2022-11-12T21:40:18.360Z,10.70
2022-11-12T21:45:47.667Z,10.60
2022-11-12T21:51:11.667Z,10.60
2022-11-12T21:56:34.281Z,10.60
2022-11-12T22:01:57.714Z,10.60
2022-11-12T22:07:19.986Z,10.60
2022-11-12T22:12:58.597Z,10.60
2022-11-12T22:18:26.692Z,10.50
2022-11-12T22:23:51.212Z,10.50
2022-11-12T22:29:13.142Z,10.50
2022-11-12T22:34:36.555Z,10.50
2022-11-12T22:39:58.742Z,10.40
2022-11-12T22:45:20.968Z,10.40
2022-11-12T22:50:45.831Z,10.40
2022-11-12T22:56:09.831Z,10.30
2022-11-12T23:01:34.018Z,10.30
2022-11-12T23:06:57.948Z,10.30
2022-11-12T23:12:20.534Z,10.30
2022-11-12T23:17:42.751Z,10.30
2022-11-12T23:23:06.215Z,10.30
2022-11-12T23:28:28.984Z,10.20
2022-11-12T23:33:53.907Z,10.20
2022-11-12T23:39:20.822Z,10.20
2022-11-12T23:44:43.074Z,10.20
2022-11-12T23:50:06.185Z,10.10
2022-11-12T23:55:30.602Z,10.20
